sensor_id;sensor_type;location;lat;lon;timestamp;P1;durP1;ratioP1;P2;durP2;ratioP2
12519;SDS011;6325;49.540;8.364;2023-04-01T00:01:09;2.65;;;1.30;;
12519;SDS011;6325;49.540;8.364;2023-04-01T00:03:39;3.93;;;1.93;;
12519;SDS011;6325;49.540;8.364;2023-04-01T00:06:07;3.17;;;1.50;;
12519;SDS011;6325;49.540;8.364;2023-04-01T00:08:35;2.45;;;1.48;;
12519;SDS011;6325;49.540;8.364;2023-04-01T00:11:02;4.97;;;2.42;;
12519;SDS011;6325;49.540;8.364;2023-04-01T00:13:30;5.70;;;3.03;;
12519;SDS011;6325;49.540;8.364;2023-04-01T00:15:57;4.10;;;1.92;;
12519;SDS011;6325;49.540;8.364;2023-04-01T00:18:24;2.78;;;1.73;;
12519;SDS011;6325;49.540;8.364;2023-04-01T00:20:51;4.43;;;2.42;;
12519;SDS011;6325;49.540;8.364;2023-04-01T00:23:19;3.10;;;1.75;;
12519;SDS011;6325;49.540;8.364;2023-04-01T00:25:46;4.95;;;2.20;;
12519;SDS011;6325;49.540;8.364;2023-04-01T00:28:14;1.90;;;1.15;;
12519;SDS011;6325;49.540;8.364;2023-04-01T00:30:43;2.78;;;1.38;;
12519;SDS011;6325;49.540;8.364;2023-04-01T00:33:10;3.65;;;1.70;;
12519;SDS011;6325;49.540;8.364;2023-04-01T00:35:37;4.20;;;2.20;;
12519;SDS011;6325;49.540;8.364;2023-04-01T00:38:04;4.55;;;2.33;;
12519;SDS011;6325;49.540;8.364;2023-04-01T00:40:32;3.47;;;2.10;;
12519;SDS011;6325;49.540;8.364;2023-04-01T00:43:00;6.20;;;3.08;;
12519;SDS011;6325;49.540;8.364;2023-04-01T00:45:29;2.27;;;1.37;;
12519;SDS011;6325;49.540;8.364;2023-04-01T00:48:00;4.03;;;1.95;;
12519;SDS011;6325;49.540;8.364;2023-04-01T00:50:30;9.38;;;3.83;;
12519;SDS011;6325;49.540;8.364;2023-04-01T00:52:59;3.33;;;1.92;;
12519;SDS011;6325;49.540;8.364;2023-04-01T00:55:27;2.03;;;1.48;;
12519;SDS011;6325;49.540;8.364;2023-04-01T00:57:57;3.38;;;1.63;;
12519;SDS011;6325;49.540;8.364;2023-04-01T01:00:26;3.83;;;1.80;;
12519;SDS011;6325;49.540;8.364;2023-04-01T01:02:52;2.20;;;1.13;;
12519;SDS011;6325;49.540;8.364;2023-04-01T01:05:23;2.30;;;1.33;;
12519;SDS011;6325;49.540;8.364;2023-04-01T01:08:00;3.78;;;1.80;;
12519;SDS011;6325;49.540;8.364;2023-04-01T01:10:30;3.90;;;2.20;;
12519;SDS011;6325;49.540;8.364;2023-04-01T01:13:01;3.78;;;1.80;;
12519;SDS011;6325;49.540;8.364;2023-04-01T01:15:36;2.50;;;1.25;;
12519;SDS011;6325;49.540;8.364;2023-04-01T01:18:09;3.23;;;1.47;;
12519;SDS011;6325;49.540;8.364;2023-04-01T01:23:57;4.65;;;2.15;;
12519;SDS011;6325;49.540;8.364;2023-04-01T01:26:52;6.05;;;3.42;;
12519;SDS011;6325;49.540;8.364;2023-04-01T01:29:39;5.13;;;2.42;;
12519;SDS011;6325;49.540;8.364;2023-04-01T01:32:39;3.27;;;1.40;;
12519;SDS011;6325;49.540;8.364;2023-04-01T01:35:27;2.72;;;1.40;;
12519;SDS011;6325;49.540;8.364;2023-04-01T01:37:59;2.35;;;1.30;;
12519;SDS011;6325;49.540;8.364;2023-04-01T01:40:28;3.85;;;1.90;;
12519;SDS011;6325;49.540;8.364;2023-04-01T01:42:59;3.78;;;1.90;;
12519;SDS011;6325;49.540;8.364;2023-04-01T01:45:28;3.83;;;1.90;;
12519;SDS011;6325;49.540;8.364;2023-04-01T01:47:59;7.32;;;3.60;;
12519;SDS011;6325;49.540;8.364;2023-04-01T01:50:29;2.70;;;1.75;;
12519;SDS011;6325;49.540;8.364;2023-04-01T01:53:00;5.23;;;2.20;;
12519;SDS011;6325;49.540;8.364;2023-04-01T01:55:29;2.55;;;1.27;;
12519;SDS011;6325;49.540;8.364;2023-04-01T01:57:58;4.18;;;2.13;;
12519;SDS011;6325;49.540;8.364;2023-04-01T02:00:28;4.13;;;2.50;;
12519;SDS011;6325;49.540;8.364;2023-04-01T02:02:55;1.88;;;1.10;;
12519;SDS011;6325;49.540;8.364;2023-04-01T02:05:25;2.28;;;1.10;;
12519;SDS011;6325;49.540;8.364;2023-04-01T02:07:57;2.35;;;1.27;;
12519;SDS011;6325;49.540;8.364;2023-04-01T02:10:28;2.92;;;1.40;;
12519;SDS011;6325;49.540;8.364;2023-04-01T02:13:00;4.40;;;1.92;;
12519;SDS011;6325;49.540;8.364;2023-04-01T02:15:31;2.13;;;1.48;;
12519;SDS011;6325;49.540;8.364;2023-04-01T02:18:03;2.53;;;1.17;;
12519;SDS011;6325;49.540;8.364;2023-04-01T02:20:30;1.85;;;0.90;;
12519;SDS011;6325;49.540;8.364;2023-04-01T02:22:59;1.45;;;1.00;;
12519;SDS011;6325;49.540;8.364;2023-04-01T02:25:28;2.07;;;1.30;;
12519;SDS011;6325;49.540;8.364;2023-04-01T02:27:58;3.40;;;1.38;;
12519;SDS011;6325;49.540;8.364;2023-04-01T02:30:27;3.42;;;1.60;;
12519;SDS011;6325;49.540;8.364;2023-04-01T02:32:57;4.47;;;2.20;;
12519;SDS011;6325;49.540;8.364;2023-04-01T02:35:25;4.57;;;2.42;;
12519;SDS011;6325;49.540;8.364;2023-04-01T02:37:53;6.35;;;3.13;;
12519;SDS011;6325;49.540;8.364;2023-04-01T02:40:22;2.85;;;1.10;;
12519;SDS011;6325;49.540;8.364;2023-04-01T02:42:49;3.95;;;1.95;;
12519;SDS011;6325;49.540;8.364;2023-04-01T02:45:16;2.80;;;1.48;;
12519;SDS011;6325;49.540;8.364;2023-04-01T02:47:43;2.30;;;1.40;;
12519;SDS011;6325;49.540;8.364;2023-04-01T02:50:10;2.47;;;1.60;;
12519;SDS011;6325;49.540;8.364;2023-04-01T02:52:37;1.63;;;1.20;;
12519;SDS011;6325;49.540;8.364;2023-04-01T02:55:04;1.90;;;1.00;;
12519;SDS011;6325;49.540;8.364;2023-04-01T02:57:33;1.58;;;1.10;;
12519;SDS011;6325;49.540;8.364;2023-04-01T03:00:00;1.63;;;1.10;;
12519;SDS011;6325;49.540;8.364;2023-04-01T03:02:26;1.98;;;0.93;;
12519;SDS011;6325;49.540;8.364;2023-04-01T03:04:53;1.63;;;0.90;;
12519;SDS011;6325;49.540;8.364;2023-04-01T03:07:20;1.20;;;0.70;;
12519;SDS011;6325;49.540;8.364;2023-04-01T03:09:47;1.45;;;0.90;;
12519;SDS011;6325;49.540;8.364;2023-04-01T03:12:13;1.50;;;0.80;;
12519;SDS011;6325;49.540;8.364;2023-04-01T03:14:42;1.70;;;0.80;;
12519;SDS011;6325;49.540;8.364;2023-04-01T03:17:08;1.05;;;0.80;;
12519;SDS011;6325;49.540;8.364;2023-04-01T03:19:35;1.52;;;0.90;;
12519;SDS011;6325;49.540;8.364;2023-04-01T03:22:02;2.85;;;1.70;;
12519;SDS011;6325;49.540;8.364;2023-04-01T03:24:29;2.53;;;0.90;;
12519;SDS011;6325;49.540;8.364;2023-04-01T03:26:56;1.02;;;0.80;;
12519;SDS011;6325;49.540;8.364;2023-04-01T03:29:22;0.80;;;0.60;;
12519;SDS011;6325;49.540;8.364;2023-04-01T03:31:51;1.33;;;0.70;;
12519;SDS011;6325;49.540;8.364;2023-04-01T03:34:17;1.98;;;1.13;;
12519;SDS011;6325;49.540;8.364;2023-04-01T03:36:47;1.30;;;0.80;;
12519;SDS011;6325;49.540;8.364;2023-04-01T03:39:13;0.70;;;0.63;;
12519;SDS011;6325;49.540;8.364;2023-04-01T03:41:43;1.17;;;0.73;;
12519;SDS011;6325;49.540;8.364;2023-04-01T03:44:10;1.60;;;0.90;;
12519;SDS011;6325;49.540;8.364;2023-04-01T03:46:37;0.70;;;0.70;;
12519;SDS011;6325;49.540;8.364;2023-04-01T03:49:07;1.50;;;0.70;;
12519;SDS011;6325;49.540;8.364;2023-04-01T03:51:36;1.17;;;1.00;;
12519;SDS011;6325;49.540;8.364;2023-04-01T03:54:03;2.20;;;0.93;;
12519;SDS011;6325;49.540;8.364;2023-04-01T03:56:31;1.23;;;1.10;;
12519;SDS011;6325;49.540;8.364;2023-04-01T03:58:58;1.53;;;0.90;;
12519;SDS011;6325;49.540;8.364;2023-04-01T04:01:27;1.75;;;0.85;;
12519;SDS011;6325;49.540;8.364;2023-04-01T04:03:54;0.63;;;0.60;;
12519;SDS011;6325;49.540;8.364;2023-04-01T04:06:23;2.10;;;0.98;;
12519;SDS011;6325;49.540;8.364;2023-04-01T04:08:50;1.55;;;1.02;;
12519;SDS011;6325;49.540;8.364;2023-04-01T04:11:18;1.00;;;0.80;;
12519;SDS011;6325;49.540;8.364;2023-04-01T04:13:45;1.67;;;0.90;;
12519;SDS011;6325;49.540;8.364;2023-04-01T04:16:12;1.83;;;0.95;;
12519;SDS011;6325;49.540;8.364;2023-04-01T04:18:40;1.45;;;0.90;;
12519;SDS011;6325;49.540;8.364;2023-04-01T04:21:07;1.40;;;0.80;;
12519;SDS011;6325;49.540;8.364;2023-04-01T04:23:38;1.38;;;0.90;;
12519;SDS011;6325;49.540;8.364;2023-04-01T04:26:06;1.80;;;0.90;;
12519;SDS011;6325;49.540;8.364;2023-04-01T04:28:34;1.23;;;0.80;;
12519;SDS011;6325;49.540;8.364;2023-04-01T04:31:01;1.10;;;0.73;;
12519;SDS011;6325;49.540;8.364;2023-04-01T04:33:29;2.42;;;1.10;;
12519;SDS011;6325;49.540;8.364;2023-04-01T04:35:57;1.20;;;0.70;;
12519;SDS011;6325;49.540;8.364;2023-04-01T04:38:25;2.00;;;1.17;;
12519;SDS011;6325;49.540;8.364;2023-04-01T04:40:54;1.42;;;0.80;;
12519;SDS011;6325;49.540;8.364;2023-04-01T04:43:21;2.20;;;1.40;;
12519;SDS011;6325;49.540;8.364;2023-04-01T04:45:48;2.22;;;0.93;;
12519;SDS011;6325;49.540;8.364;2023-04-01T04:48:15;2.03;;;1.20;;
12519;SDS011;6325;49.540;8.364;2023-04-01T04:50:45;2.10;;;2.00;;
12519;SDS011;6325;49.540;8.364;2023-04-01T04:53:13;1.83;;;1.10;;
12519;SDS011;6325;49.540;8.364;2023-04-01T04:55:42;1.52;;;0.80;;
12519;SDS011;6325;49.540;8.364;2023-04-01T04:58:11;1.85;;;0.90;;
12519;SDS011;6325;49.540;8.364;2023-04-01T05:00:38;1.05;;;0.70;;
12519;SDS011;6325;49.540;8.364;2023-04-01T05:03:05;2.20;;;1.20;;
12519;SDS011;6325;49.540;8.364;2023-04-01T05:05:33;2.85;;;1.75;;
12519;SDS011;6325;49.540;8.364;2023-04-01T05:08:00;2.42;;;1.15;;
12519;SDS011;6325;49.540;8.364;2023-04-01T05:10:27;1.25;;;0.90;;
12519;SDS011;6325;49.540;8.364;2023-04-01T05:12:55;1.98;;;1.00;;
12519;SDS011;6325;49.540;8.364;2023-04-01T05:15:23;1.23;;;0.88;;
12519;SDS011;6325;49.540;8.364;2023-04-01T05:17:50;1.23;;;0.70;;
12519;SDS011;6325;49.540;8.364;2023-04-01T05:20:17;0.93;;;0.83;;
12519;SDS011;6325;49.540;8.364;2023-04-01T05:22:44;1.42;;;0.70;;
12519;SDS011;6325;49.540;8.364;2023-04-01T05:25:11;1.27;;;0.70;;
12519;SDS011;6325;49.540;8.364;2023-04-01T05:27:37;1.17;;;0.60;;
12519;SDS011;6325;49.540;8.364;2023-04-01T05:30:05;0.70;;;0.70;;
12519;SDS011;6325;49.540;8.364;2023-04-01T05:32:34;1.97;;;0.90;;
12519;SDS011;6325;49.540;8.364;2023-04-01T05:35:01;1.20;;;0.63;;
12519;SDS011;6325;49.540;8.364;2023-04-01T05:37:28;1.30;;;0.90;;
12519;SDS011;6325;49.540;8.364;2023-04-01T05:39:55;0.77;;;0.70;;
12519;SDS011;6325;49.540;8.364;2023-04-01T05:42:23;1.00;;;0.70;;
12519;SDS011;6325;49.540;8.364;2023-04-01T05:44:50;0.90;;;0.90;;
12519;SDS011;6325;49.540;8.364;2023-04-01T05:47:17;0.73;;;0.70;;
12519;SDS011;6325;49.540;8.364;2023-04-01T05:49:45;1.33;;;0.80;;
12519;SDS011;6325;49.540;8.364;2023-04-01T05:52:12;1.00;;;0.80;;
12519;SDS011;6325;49.540;8.364;2023-04-01T05:54:41;1.02;;;0.70;;
12519;SDS011;6325;49.540;8.364;2023-04-01T05:57:07;1.08;;;0.68;;
12519;SDS011;6325;49.540;8.364;2023-04-01T05:59:34;0.80;;;0.70;;
12519;SDS011;6325;49.540;8.364;2023-04-01T06:02:01;1.02;;;0.90;;
12519;SDS011;6325;49.540;8.364;2023-04-01T06:04:28;1.38;;;0.80;;
12519;SDS011;6325;49.540;8.364;2023-04-01T06:07:08;0.63;;;0.63;;
12519;SDS011;6325;49.540;8.364;2023-04-01T06:09:40;2.03;;;0.60;;
12519;SDS011;6325;49.540;8.364;2023-04-01T06:12:16;0.60;;;0.60;;
12519;SDS011;6325;49.540;8.364;2023-04-01T06:15:08;1.15;;;0.50;;
12519;SDS011;6325;49.540;8.364;2023-04-01T06:17:48;1.60;;;0.70;;
12519;SDS011;6325;49.540;8.364;2023-04-01T06:20:39;0.60;;;0.60;;
12519;SDS011;6325;49.540;8.364;2023-04-01T06:26:04;0.95;;;0.77;;
12519;SDS011;6325;49.540;8.364;2023-04-01T06:28:44;0.70;;;0.60;;
12519;SDS011;6325;49.540;8.364;2023-04-01T06:31:26;1.02;;;0.70;;
12519;SDS011;6325;49.540;8.364;2023-04-01T06:34:17;0.60;;;0.60;;
12519;SDS011;6325;49.540;8.364;2023-04-01T06:37:01;0.70;;;0.70;;
12519;SDS011;6325;49.540;8.364;2023-04-01T06:42:57;1.10;;;0.90;;
12519;SDS011;6325;49.540;8.364;2023-04-01T06:45:37;1.55;;;1.00;;
12519;SDS011;6325;49.540;8.364;2023-04-01T06:48:14;1.15;;;0.88;;
12519;SDS011;6325;49.540;8.364;2023-04-01T06:50:52;0.75;;;0.63;;
12519;SDS011;6325;49.540;8.364;2023-04-01T06:53:26;0.80;;;0.50;;
12519;SDS011;6325;49.540;8.364;2023-04-01T06:56:02;0.50;;;0.50;;
12519;SDS011;6325;49.540;8.364;2023-04-01T06:58:35;0.50;;;0.50;;
12519;SDS011;6325;49.540;8.364;2023-04-01T07:01:06;1.08;;;0.85;;
12519;SDS011;6325;49.540;8.364;2023-04-01T07:03:38;1.85;;;1.17;;
12519;SDS011;6325;49.540;8.364;2023-04-01T07:06:08;1.15;;;1.08;;
12519;SDS011;6325;49.540;8.364;2023-04-01T07:08:39;3.50;;;2.30;;
12519;SDS011;6325;49.540;8.364;2023-04-01T07:11:09;2.80;;;1.80;;
12519;SDS011;6325;49.540;8.364;2023-04-01T07:13:41;3.22;;;2.20;;
12519;SDS011;6325;49.540;8.364;2023-04-01T07:16:12;1.35;;;1.25;;
12519;SDS011;6325;49.540;8.364;2023-04-01T07:18:44;0.50;;;0.50;;
12519;SDS011;6325;49.540;8.364;2023-04-01T07:21:18;2.40;;;1.50;;
12519;SDS011;6325;49.540;8.364;2023-04-01T07:23:51;0.50;;;0.50;;
12519;SDS011;6325;49.540;8.364;2023-04-01T07:26:21;0.75;;;0.50;;
12519;SDS011;6325;49.540;8.364;2023-04-01T07:28:52;0.45;;;0.40;;
12519;SDS011;6325;49.540;8.364;2023-04-01T07:31:23;0.40;;;0.40;;
12519;SDS011;6325;49.540;8.364;2023-04-01T07:34:00;2.15;;;1.80;;
12519;SDS011;6325;49.540;8.364;2023-04-01T07:36:33;2.42;;;1.67;;
12519;SDS011;6325;49.540;8.364;2023-04-01T07:39:08;1.42;;;1.33;;
12519;SDS011;6325;49.540;8.364;2023-04-01T07:41:45;1.42;;;1.10;;
12519;SDS011;6325;49.540;8.364;2023-04-01T07:44:20;0.80;;;0.80;;
12519;SDS011;6325;49.540;8.364;2023-04-01T07:46:57;2.05;;;1.15;;
12519;SDS011;6325;49.540;8.364;2023-04-01T07:49:35;1.23;;;1.13;;
12519;SDS011;6325;49.540;8.364;2023-04-01T07:52:09;0.80;;;0.80;;
12519;SDS011;6325;49.540;8.364;2023-04-01T07:54:43;1.02;;;0.90;;
12519;SDS011;6325;49.540;8.364;2023-04-01T07:57:18;0.80;;;0.80;;
12519;SDS011;6325;49.540;8.364;2023-04-01T07:59:51;0.90;;;0.90;;
12519;SDS011;6325;49.540;8.364;2023-04-01T08:02:27;0.30;;;0.30;;
12519;SDS011;6325;49.540;8.364;2023-04-01T08:05:04;0.30;;;0.30;;
12519;SDS011;6325;49.540;8.364;2023-04-01T08:07:40;0.70;;;0.70;;
12519;SDS011;6325;49.540;8.364;2023-04-01T08:10:17;0.90;;;0.90;;
12519;SDS011;6325;49.540;8.364;2023-04-01T08:12:51;0.40;;;0.40;;
12519;SDS011;6325;49.540;8.364;2023-04-01T08:15:28;0.50;;;0.50;;
12519;SDS011;6325;49.540;8.364;2023-04-01T08:18:08;0.30;;;0.30;;
12519;SDS011;6325;49.540;8.364;2023-04-01T08:20:45;0.68;;;0.68;;
12519;SDS011;6325;49.540;8.364;2023-04-01T08:23:15;0.50;;;0.50;;
12519;SDS011;6325;49.540;8.364;2023-04-01T08:25:47;0.35;;;0.35;;
12519;SDS011;6325;49.540;8.364;2023-04-01T08:28:20;0.50;;;0.30;;
12519;SDS011;6325;49.540;8.364;2023-04-01T08:30:52;0.45;;;0.40;;
12519;SDS011;6325;49.540;8.364;2023-04-01T08:33:24;0.30;;;0.30;;
12519;SDS011;6325;49.540;8.364;2023-04-01T08:35:54;0.30;;;0.30;;
12519;SDS011;6325;49.540;8.364;2023-04-01T08:38:25;0.50;;;0.50;;
12519;SDS011;6325;49.540;8.364;2023-04-01T08:41:05;0.40;;;0.40;;
12519;SDS011;6325;49.540;8.364;2023-04-01T08:43:50;0.95;;;0.60;;
12519;SDS011;6325;49.540;8.364;2023-04-01T08:46:44;0.43;;;0.43;;
12519;SDS011;6325;49.540;8.364;2023-04-01T08:49:29;0.40;;;0.40;;
12519;SDS011;6325;49.540;8.364;2023-04-01T08:52:16;0.40;;;0.35;;
12519;SDS011;6325;49.540;8.364;2023-04-01T08:55:00;1.40;;;1.30;;
12519;SDS011;6325;49.540;8.364;2023-04-01T08:57:53;0.38;;;0.38;;
12519;SDS011;6325;49.540;8.364;2023-04-01T09:00:31;2.22;;;1.58;;
12519;SDS011;6325;49.540;8.364;2023-04-01T09:03:13;0.40;;;0.40;;
12519;SDS011;6325;49.540;8.364;2023-04-01T09:06:11;0.53;;;0.50;;
12519;SDS011;6325;49.540;8.364;2023-04-01T09:12:00;0.60;;;0.60;;
12519;SDS011;6325;49.540;8.364;2023-04-01T09:14:53;0.50;;;0.50;;
12519;SDS011;6325;49.540;8.364;2023-04-01T09:17:43;0.60;;;0.60;;
12519;SDS011;6325;49.540;8.364;2023-04-01T09:20:29;0.90;;;0.90;;
12519;SDS011;6325;49.540;8.364;2023-04-01T09:23:17;2.05;;;1.85;;
12519;SDS011;6325;49.540;8.364;2023-04-01T09:26:04;1.50;;;1.30;;
12519;SDS011;6325;49.540;8.364;2023-04-01T09:28:45;3.58;;;2.50;;
12519;SDS011;6325;49.540;8.364;2023-04-01T09:31:25;0.88;;;0.88;;
12519;SDS011;6325;49.540;8.364;2023-04-01T09:34:21;1.20;;;1.10;;
12519;SDS011;6325;49.540;8.364;2023-04-01T09:37:01;2.25;;;1.90;;
12519;SDS011;6325;49.540;8.364;2023-04-01T09:39:44;1.00;;;1.00;;
12519;SDS011;6325;49.540;8.364;2023-04-01T09:42:29;2.75;;;1.98;;
12519;SDS011;6325;49.540;8.364;2023-04-01T09:45:29;2.80;;;2.20;;
12519;SDS011;6325;49.540;8.364;2023-04-01T09:48:37;1.58;;;1.48;;
12519;SDS011;6325;49.540;8.364;2023-04-01T09:51:18;2.53;;;2.33;;
12519;SDS011;6325;49.540;8.364;2023-04-01T09:54:01;3.20;;;2.25;;
12519;SDS011;6325;49.540;8.364;2023-04-01T09:56:52;3.03;;;2.22;;
12519;SDS011;6325;49.540;8.364;2023-04-01T10:03:02;2.80;;;1.80;;
12519;SDS011;6325;49.540;8.364;2023-04-01T10:08:59;6.22;;;3.78;;
12519;SDS011;6325;49.540;8.364;2023-04-01T10:11:56;4.13;;;2.33;;
12519;SDS011;6325;49.540;8.364;2023-04-01T10:14:53;2.25;;;1.73;;
12519;SDS011;6325;49.540;8.364;2023-04-01T10:17:59;4.90;;;3.13;;
12519;SDS011;6325;49.540;8.364;2023-04-01T10:20:46;1.30;;;1.10;;
12519;SDS011;6325;49.540;8.364;2023-04-01T10:23:34;1.63;;;1.40;;
12519;SDS011;6325;49.540;8.364;2023-04-01T10:26:20;3.28;;;2.47;;
12519;SDS011;6325;49.540;8.364;2023-04-01T10:29:16;1.85;;;1.42;;
12519;SDS011;6325;49.540;8.364;2023-04-01T10:35:32;1.15;;;0.98;;
12519;SDS011;6325;49.540;8.364;2023-04-01T10:38:35;2.10;;;1.42;;
12519;SDS011;6325;49.540;8.364;2023-04-01T10:44:32;1.45;;;1.30;;
12519;SDS011;6325;49.540;8.364;2023-04-01T10:47:39;5.07;;;3.00;;
12519;SDS011;6325;49.540;8.364;2023-04-01T10:53:38;1.48;;;1.38;;
12519;SDS011;6325;49.540;8.364;2023-04-01T11:14:52;5.00;;;3.03;;
12519;SDS011;6325;49.540;8.364;2023-04-01T11:17:59;0.77;;;0.77;;
12519;SDS011;6325;49.540;8.364;2023-04-01T11:26:56;4.55;;;2.80;;
12519;SDS011;6325;49.540;8.364;2023-04-01T11:29:36;2.38;;;1.60;;
12519;SDS011;6325;49.540;8.364;2023-04-01T11:32:19;4.87;;;3.10;;
12519;SDS011;6325;49.540;8.364;2023-04-01T11:34:56;3.80;;;2.53;;
12519;SDS011;6325;49.540;8.364;2023-04-01T11:37:50;3.10;;;2.40;;
12519;SDS011;6325;49.540;8.364;2023-04-01T11:40:27;3.22;;;2.35;;
12519;SDS011;6325;49.540;8.364;2023-04-01T11:43:01;6.23;;;3.73;;
12519;SDS011;6325;49.540;8.364;2023-04-01T11:45:35;4.05;;;2.47;;
12519;SDS011;6325;49.540;8.364;2023-04-01T11:48:07;2.08;;;1.42;;
12519;SDS011;6325;49.540;8.364;2023-04-01T11:50:47;2.30;;;1.83;;
12519;SDS011;6325;49.540;8.364;2023-04-01T11:53:26;4.85;;;2.85;;
12519;SDS011;6325;49.540;8.364;2023-04-01T11:56:14;3.75;;;2.58;;
12519;SDS011;6325;49.540;8.364;2023-04-01T11:59:05;1.20;;;1.10;;
12519;SDS011;6325;49.540;8.364;2023-04-01T12:02:03;4.22;;;2.70;;
12519;SDS011;6325;49.540;8.364;2023-04-01T12:04:44;4.07;;;2.73;;
12519;SDS011;6325;49.540;8.364;2023-04-01T12:07:45;2.75;;;2.05;;
12519;SDS011;6325;49.540;8.364;2023-04-01T12:10:20;6.40;;;3.73;;
12519;SDS011;6325;49.540;8.364;2023-04-01T12:12:54;4.77;;;3.30;;
12519;SDS011;6325;49.540;8.364;2023-04-01T12:15:30;3.53;;;2.20;;
12519;SDS011;6325;49.540;8.364;2023-04-01T12:18:12;2.58;;;1.80;;
12519;SDS011;6325;49.540;8.364;2023-04-01T12:20:48;3.38;;;2.40;;
12519;SDS011;6325;49.540;8.364;2023-04-01T12:23:27;2.00;;;1.80;;
12519;SDS011;6325;49.540;8.364;2023-04-01T12:26:30;4.45;;;2.88;;
12519;SDS011;6325;49.540;8.364;2023-04-01T12:29:16;4.15;;;2.70;;
12519;SDS011;6325;49.540;8.364;2023-04-01T12:32:03;3.47;;;2.20;;
12519;SDS011;6325;49.540;8.364;2023-04-01T12:34:47;0.68;;;0.68;;
12519;SDS011;6325;49.540;8.364;2023-04-01T12:37:26;4.10;;;2.53;;
12519;SDS011;6325;49.540;8.364;2023-04-01T12:40:04;2.03;;;1.60;;
12519;SDS011;6325;49.540;8.364;2023-04-01T12:42:47;5.97;;;3.43;;
12519;SDS011;6325;49.540;8.364;2023-04-01T12:45:28;3.28;;;2.13;;
12519;SDS011;6325;49.540;8.364;2023-04-01T12:48:00;3.20;;;2.00;;
12519;SDS011;6325;49.540;8.364;2023-04-01T12:50:57;4.15;;;2.55;;
12519;SDS011;6325;49.540;8.364;2023-04-01T12:53:37;1.58;;;1.48;;
12519;SDS011;6325;49.540;8.364;2023-04-01T12:56:15;4.07;;;2.60;;
12519;SDS011;6325;49.540;8.364;2023-04-01T12:59:08;3.97;;;2.60;;
12519;SDS011;6325;49.540;8.364;2023-04-01T13:02:01;2.17;;;1.70;;
12519;SDS011;6325;49.540;8.364;2023-04-01T13:04:48;4.15;;;2.70;;
12519;SDS011;6325;49.540;8.364;2023-04-01T13:07:46;3.33;;;2.15;;
12519;SDS011;6325;49.540;8.364;2023-04-01T13:10:27;4.68;;;2.88;;
12519;SDS011;6325;49.540;8.364;2023-04-01T13:13:09;4.07;;;2.53;;
12519;SDS011;6325;49.540;8.364;2023-04-01T13:15:51;2.80;;;2.10;;
12519;SDS011;6325;49.540;8.364;2023-04-01T13:18:24;4.78;;;3.30;;
12519;SDS011;6325;49.540;8.364;2023-04-01T13:21:00;1.77;;;1.50;;
12519;SDS011;6325;49.540;8.364;2023-04-01T13:23:38;3.08;;;2.00;;
12519;SDS011;6325;49.540;8.364;2023-04-01T13:26:18;2.67;;;2.05;;
12519;SDS011;6325;49.540;8.364;2023-04-01T13:28:50;2.83;;;1.60;;
12519;SDS011;6325;49.540;8.364;2023-04-01T13:31:28;1.80;;;1.60;;
12519;SDS011;6325;49.540;8.364;2023-04-01T13:34:13;0.90;;;0.90;;
12519;SDS011;6325;49.540;8.364;2023-04-01T13:36:51;1.23;;;1.00;;
12519;SDS011;6325;49.540;8.364;2023-04-01T13:39:30;1.75;;;1.42;;
12519;SDS011;6325;49.540;8.364;2023-04-01T13:42:12;1.20;;;0.95;;
12519;SDS011;6325;49.540;8.364;2023-04-01T13:44:45;0.50;;;0.50;;
12519;SDS011;6325;49.540;8.364;2023-04-01T13:47:25;1.95;;;1.73;;
12519;SDS011;6325;49.540;8.364;2023-04-01T13:56:26;0.75;;;0.75;;
12519;SDS011;6325;49.540;8.364;2023-04-01T13:59:05;3.85;;;2.40;;
12519;SDS011;6325;49.540;8.364;2023-04-01T14:01:47;7.15;;;4.20;;
12519;SDS011;6325;49.540;8.364;2023-04-01T14:07:14;3.97;;;2.40;;
12519;SDS011;6325;49.540;8.364;2023-04-01T14:09:59;3.38;;;2.10;;
12519;SDS011;6325;49.540;8.364;2023-04-01T14:12:36;5.68;;;3.30;;
12519;SDS011;6325;49.540;8.364;2023-04-01T14:15:19;4.03;;;2.58;;
12519;SDS011;6325;49.540;8.364;2023-04-01T14:20:47;1.98;;;1.30;;
12519;SDS011;6325;49.540;8.364;2023-04-01T14:23:41;0.80;;;0.80;;
12519;SDS011;6325;49.540;8.364;2023-04-01T14:26:22;4.30;;;2.88;;
12519;SDS011;6325;49.540;8.364;2023-04-01T14:29:24;2.83;;;2.00;;
12519;SDS011;6325;49.540;8.364;2023-04-01T14:32:06;5.50;;;3.20;;
12519;SDS011;6325;49.540;8.364;2023-04-01T14:34:46;5.03;;;2.95;;
12519;SDS011;6325;49.540;8.364;2023-04-01T14:37:27;3.13;;;2.00;;
12519;SDS011;6325;49.540;8.364;2023-04-01T14:40:15;3.47;;;2.45;;
12519;SDS011;6325;49.540;8.364;2023-04-01T14:42:55;2.10;;;1.70;;
12519;SDS011;6325;49.540;8.364;2023-04-01T14:48:33;2.85;;;1.60;;
12519;SDS011;6325;49.540;8.364;2023-04-01T14:51:08;2.28;;;1.80;;
12519;SDS011;6325;49.540;8.364;2023-04-01T14:53:38;1.52;;;1.20;;
12519;SDS011;6325;49.540;8.364;2023-04-01T14:56:10;1.27;;;1.10;;
12519;SDS011;6325;49.540;8.364;2023-04-01T14:58:42;0.70;;;0.70;;
12519;SDS011;6325;49.540;8.364;2023-04-01T15:01:13;2.35;;;1.60;;
12519;SDS011;6325;49.540;8.364;2023-04-01T15:03:57;0.77;;;0.75;;
12519;SDS011;6325;49.540;8.364;2023-04-01T15:06:39;2.37;;;2.03;;
12519;SDS011;6325;49.540;8.364;2023-04-01T15:09:23;1.15;;;1.05;;
12519;SDS011;6325;49.540;8.364;2023-04-01T15:12:00;2.42;;;2.00;;
12519;SDS011;6325;49.540;8.364;2023-04-01T15:14:39;1.25;;;1.08;;
12519;SDS011;6325;49.540;8.364;2023-04-01T15:17:28;1.95;;;1.42;;
12519;SDS011;6325;49.540;8.364;2023-04-01T15:20:13;3.10;;;1.83;;
12519;SDS011;6325;49.540;8.364;2023-04-01T15:23:06;1.73;;;1.50;;
12519;SDS011;6325;49.540;8.364;2023-04-01T15:25:45;1.73;;;1.63;;
12519;SDS011;6325;49.540;8.364;2023-04-01T15:28:25;2.00;;;1.70;;
12519;SDS011;6325;49.540;8.364;2023-04-01T15:30:58;1.35;;;1.27;;
12519;SDS011;6325;49.540;8.364;2023-04-01T15:33:36;2.83;;;1.98;;
12519;SDS011;6325;49.540;8.364;2023-04-01T15:36:15;1.75;;;1.65;;
12519;SDS011;6325;49.540;8.364;2023-04-01T15:38:52;3.20;;;2.33;;
12519;SDS011;6325;49.540;8.364;2023-04-01T15:41:25;1.95;;;1.30;;
12519;SDS011;6325;49.540;8.364;2023-04-01T15:44:02;1.25;;;1.10;;
12519;SDS011;6325;49.540;8.364;2023-04-01T15:46:44;2.78;;;1.90;;
12519;SDS011;6325;49.540;8.364;2023-04-01T15:49:22;3.65;;;2.50;;
12519;SDS011;6325;49.540;8.364;2023-04-01T15:52:05;2.47;;;2.00;;
12519;SDS011;6325;49.540;8.364;2023-04-01T15:57:37;1.63;;;1.38;;
12519;SDS011;6325;49.540;8.364;2023-04-01T16:00:17;1.92;;;1.75;;
12519;SDS011;6325;49.540;8.364;2023-04-01T16:02:53;2.10;;;1.80;;
12519;SDS011;6325;49.540;8.364;2023-04-01T16:05:41;3.80;;;2.33;;
12519;SDS011;6325;49.540;8.364;2023-04-01T16:08:23;3.50;;;2.00;;
12519;SDS011;6325;49.540;8.364;2023-04-01T16:11:09;0.90;;;0.90;;
12519;SDS011;6325;49.540;8.364;2023-04-01T16:13:53;1.20;;;1.10;;
12519;SDS011;6325;49.540;8.364;2023-04-01T16:16:31;3.30;;;2.33;;
12519;SDS011;6325;49.540;8.364;2023-04-01T16:19:24;2.22;;;2.03;;
12519;SDS011;6325;49.540;8.364;2023-04-01T16:22:06;1.25;;;1.15;;
12519;SDS011;6325;49.540;8.364;2023-04-01T16:24:43;3.77;;;2.40;;
12519;SDS011;6325;49.540;8.364;2023-04-01T16:27:14;2.55;;;1.60;;
12519;SDS011;6325;49.540;8.364;2023-04-01T16:29:51;4.25;;;2.58;;
12519;SDS011;6325;49.540;8.364;2023-04-01T16:32:23;2.83;;;2.03;;
12519;SDS011;6325;49.540;8.364;2023-04-01T16:35:05;4.45;;;2.70;;
12519;SDS011;6325;49.540;8.364;2023-04-01T16:37:49;5.43;;;3.50;;
12519;SDS011;6325;49.540;8.364;2023-04-01T16:40:24;8.90;;;4.68;;
12519;SDS011;6325;49.540;8.364;2023-04-01T16:43:06;5.53;;;2.97;;
12519;SDS011;6325;49.540;8.364;2023-04-01T16:45:38;5.30;;;3.03;;
12519;SDS011;6325;49.540;8.364;2023-04-01T16:48:11;6.22;;;4.03;;
12519;SDS011;6325;49.540;8.364;2023-04-01T16:50:46;2.73;;;2.03;;
12519;SDS011;6325;49.540;8.364;2023-04-01T16:53:22;5.80;;;3.05;;
12519;SDS011;6325;49.540;8.364;2023-04-01T16:56:10;5.25;;;3.60;;
12519;SDS011;6325;49.540;8.364;2023-04-01T16:58:40;2.92;;;2.30;;
12519;SDS011;6325;49.540;8.364;2023-04-01T17:01:11;3.33;;;2.10;;
12519;SDS011;6325;49.540;8.364;2023-04-01T17:03:43;4.47;;;2.90;;
12519;SDS011;6325;49.540;8.364;2023-04-01T17:06:14;4.00;;;2.08;;